createdAt,value
2023-03-21T00:01:53.975Z,30.70
2023-03-21T00:04:24.877Z,28.20
2023-03-21T00:06:54.138Z,25.80
2023-03-21T00:09:22.469Z,60.00
2023-03-21T00:11:53.708Z,37.90
2023-03-21T00:14:23.804Z,30.70
2023-03-21T00:16:53.738Z,33.20
2023-03-21T00:19:26.937Z,58.70
2023-03-21T00:22:06.900Z,34.10
2023-03-21T00:24:36.942Z,28.00
2023-03-21T00:29:57.110Z,32.70
2023-03-21T00:32:28.870Z,34.80
2023-03-21T00:35:23.303Z,34.40
2023-03-21T00:37:49.284Z,32.30
2023-03-21T00:40:28.065Z,39.00
2023-03-21T00:42:59.152Z,28.10
2023-03-21T00:45:28.156Z,36.50
2023-03-21T00:47:56.668Z,24.50
2023-03-21T00:50:30.124Z,47.40
2023-03-21T00:52:58.917Z,25.30
2023-03-21T00:55:28.524Z,45.40
2023-03-21T00:58:02.156Z,24.50
2023-03-21T01:00:31.348Z,27.20
2023-03-21T01:03:17.680Z,48.30
2023-03-21T01:06:04.715Z,26.00
2023-03-21T01:08:52.243Z,23.30
2023-03-21T01:11:23.554Z,29.40
2023-03-21T01:13:59.620Z,28.80
2023-03-21T01:16:32.879Z,29.60
2023-03-21T01:19:03.336Z,44.20
2023-03-21T01:21:33.231Z,34.40
2023-03-21T01:24:02.192Z,50.70
2023-03-21T01:26:30.668Z,25.80
2023-03-21T01:28:59.167Z,23.70
2023-03-21T01:31:28.479Z,44.20
2023-03-21T01:33:56.852Z,23.20
2023-03-21T01:36:26.731Z,49.40
2023-03-21T01:39:00.331Z,32.90
2023-03-21T01:41:42.851Z,35.20
2023-03-21T01:44:20.872Z,31.40
2023-03-21T01:47:11.497Z,33.60
2023-03-21T01:49:41.797Z,51.40
2023-03-21T01:52:37.130Z,24.90
2023-03-21T01:55:12.529Z,30.70
2023-03-21T01:58:04.885Z,33.30
2023-03-21T02:00:46.746Z,33.40
2023-03-21T02:03:36.024Z,34.00
2023-03-21T02:06:34.359Z,28.90
2023-03-21T02:09:12.673Z,29.10
2023-03-21T02:11:41.137Z,32.20
2023-03-21T02:14:15.342Z,45.90
2023-03-21T02:17:01.848Z,28.80
2023-03-21T02:19:53.286Z,24.50
2023-03-21T02:22:38.014Z,25.50
2023-03-21T02:25:21.253Z,23.70
2023-03-21T02:27:56.154Z,25.00
2023-03-21T02:30:51.711Z,28.20
2023-03-21T02:34:08.025Z,30.40
2023-03-21T02:37:36.734Z,24.10
2023-03-21T02:40:40.077Z,32.40
2023-03-21T02:43:22.677Z,27.00
2023-03-21T02:46:03.760Z,34.90
2023-03-21T02:48:50.354Z,32.60
2023-03-21T02:51:21.572Z,26.10
2023-03-21T02:54:19.965Z,26.10
2023-03-21T02:56:43.404Z,31.00
2023-03-21T02:59:11.579Z,28.20
2023-03-21T03:01:40.748Z,32.90
2023-03-21T03:04:23.672Z,50.50
2023-03-21T03:06:58.833Z,23.00
2023-03-21T03:09:27.478Z,20.40
2023-03-21T03:12:01.921Z,28.10
2023-03-21T03:15:02.194Z,49.00
2023-03-21T03:17:39.137Z,25.50
2023-03-21T03:20:17.515Z,29.80
2023-03-21T03:22:56.289Z,34.50
2023-03-21T03:25:41.698Z,28.40
2023-03-21T03:28:11.591Z,26.00
2023-03-21T03:30:48.836Z,31.00
2023-03-21T03:33:26.068Z,31.00
2023-03-21T03:36:04.959Z,25.80
2023-03-21T03:38:35.607Z,25.40
2023-03-21T03:41:19.527Z,22.70
2023-03-21T03:43:55.714Z,27.20
2023-03-21T03:46:35.192Z,23.70
2023-03-21T03:49:15.925Z,26.10
2023-03-21T03:51:49.152Z,27.60
2023-03-21T03:54:39.610Z,24.80
2023-03-21T03:57:08.416Z,19.70
2023-03-21T03:59:38.215Z,26.00
2023-03-21T04:02:15.095Z,24.20
2023-03-21T04:04:44.935Z,22.10
2023-03-21T04:07:13.218Z,23.80
2023-03-21T04:09:44.882Z,34.10
2023-03-21T04:12:16.105Z,26.00
2023-03-21T04:14:56.979Z,26.30
2023-03-21T04:17:35.002Z,25.40
2023-03-21T04:20:12.074Z,26.60
2023-03-21T04:22:44.831Z,24.80
2023-03-21T04:25:18.923Z,29.20
2023-03-21T04:27:56.644Z,26.20
2023-03-21T04:30:44.975Z,26.60
2023-03-21T04:33:20.128Z,27.50
2023-03-21T04:35:56.838Z,24.90
2023-03-21T04:38:30.861Z,30.50
2023-03-21T04:41:02.296Z,26.60
2023-03-21T04:43:32.244Z,30.10
2023-03-21T04:46:00.782Z,21.10
2023-03-21T04:48:29.308Z,20.50
2023-03-21T04:50:57.564Z,24.60
2023-03-21T04:53:26.209Z,24.30
2023-03-21T04:55:55.646Z,43.50
2023-03-21T04:58:24.298Z,26.30
2023-03-21T05:00:53.165Z,20.30
2023-03-21T05:03:22.689Z,27.00
2023-03-21T05:05:51.289Z,45.40
2023-03-21T05:08:20.544Z,24.90
2023-03-21T05:10:52.755Z,32.80
2023-03-21T05:15:57.494Z,22.50
2023-03-21T05:18:26.983Z,41.50
2023-03-21T05:21:10.822Z,25.10
2023-03-21T05:23:39.727Z,19.90
2023-03-21T05:26:09.114Z,42.40
2023-03-21T05:28:57.565Z,21.40
2023-03-21T05:31:26.687Z,41.60
2023-03-21T05:34:05.498Z,22.20
2023-03-21T05:36:40.229Z,47.40
2023-03-21T05:39:10.565Z,25.90
2023-03-21T05:41:42.467Z,31.30
2023-03-21T05:44:11.026Z,26.70
2023-03-21T05:46:40.564Z,48.40
2023-03-21T05:49:12.600Z,50.30
2023-03-21T05:51:42.488Z,27.10
2023-03-21T05:54:16.925Z,23.70
2023-03-21T05:56:49.628Z,45.00
2023-03-21T05:59:27.434Z,24.40
2023-03-21T06:01:57.124Z,31.20
2023-03-21T06:04:25.887Z,49.70
2023-03-21T06:06:54.682Z,53.60
2023-03-21T06:09:27.719Z,32.00
2023-03-21T06:12:00.463Z,58.90
2023-03-21T06:14:28.860Z,55.20
2023-03-21T06:17:16.994Z,28.30
2023-03-21T06:19:50.136Z,29.30
2023-03-21T06:22:31.859Z,54.80
2023-03-21T06:25:02.385Z,54.80
2023-03-21T06:27:32.810Z,61.70
2023-03-21T06:30:08.793Z,35.40
2023-03-21T06:32:44.630Z,30.60
2023-03-21T06:35:15.663Z,50.70
2023-03-21T06:37:46.395Z,48.40
2023-03-21T06:40:15.099Z,50.60
2023-03-21T06:42:43.685Z,50.40
2023-03-21T06:45:12.436Z,47.90
2023-03-21T06:47:41.818Z,49.00
2023-03-21T06:50:19.850Z,47.50
2023-03-21T06:52:48.605Z,47.80
2023-03-21T06:55:19.407Z,51.50
2023-03-21T06:57:48.069Z,44.20
2023-03-21T07:00:17.398Z,49.00
2023-03-21T07:02:56.991Z,54.40
2023-03-21T07:05:27.447Z,47.40
2023-03-21T07:07:55.799Z,50.80
2023-03-21T07:10:25.907Z,46.00
2023-03-21T07:13:00.159Z,47.70
2023-03-21T07:15:40.872Z,45.70
2023-03-21T07:18:09.528Z,45.20
2023-03-21T07:20:40.760Z,46.80
2023-03-21T07:23:09.446Z,45.60
2023-03-21T07:25:38.002Z,42.90
2023-03-21T07:28:09.321Z,46.50
2023-03-21T07:30:38.016Z,50.90
2023-03-21T07:33:07.841Z,48.20
2023-03-21T07:35:37.756Z,44.60
2023-03-21T07:38:08.659Z,47.80
2023-03-21T07:40:39.579Z,42.80
2023-03-21T07:43:11.394Z,42.60
2023-03-21T07:45:42.763Z,50.70
2023-03-21T07:48:13.223Z,47.50
2023-03-21T07:50:41.597Z,47.10
2023-03-21T07:53:10.380Z,47.60
2023-03-21T07:55:40.961Z,46.00
2023-03-21T07:58:10.008Z,46.30
2023-03-21T08:00:38.891Z,41.80
2023-03-21T08:03:07.294Z,46.50
2023-03-21T08:05:41.279Z,43.90
2023-03-21T08:08:10.478Z,46.10
2023-03-21T08:10:38.848Z,41.00
2023-03-21T08:13:08.987Z,38.20
2023-03-21T08:15:42.574Z,44.70
2023-03-21T08:18:11.428Z,41.70
2023-03-21T08:20:42.000Z,39.40
2023-03-21T08:23:11.113Z,39.20
2023-03-21T08:25:39.882Z,41.00
2023-03-21T08:28:08.269Z,40.70
2023-03-21T08:30:36.861Z,41.50
2023-03-21T08:33:05.045Z,37.90
2023-03-21T08:35:34.358Z,39.80
2023-03-21T08:38:04.041Z,38.20
2023-03-21T08:40:32.832Z,39.50
2023-03-21T08:43:01.203Z,39.70
2023-03-21T08:45:30.811Z,36.00
2023-03-21T08:48:02.853Z,42.20
2023-03-21T08:50:32.013Z,45.30
2023-03-21T08:53:00.375Z,39.90
2023-03-21T08:55:28.843Z,40.40
2023-03-21T08:57:58.337Z,48.90
2023-03-21T09:00:27.442Z,48.00
2023-03-21T09:02:56.193Z,43.40
2023-03-21T09:05:26.866Z,44.50
2023-03-21T09:07:55.078Z,44.00
2023-03-21T09:10:23.416Z,42.80
2023-03-21T09:12:55.987Z,46.20
2023-03-21T09:15:28.839Z,41.40
2023-03-21T09:17:58.992Z,37.50
2023-03-21T09:20:33.197Z,29.20
2023-03-21T09:23:02.110Z,37.90
2023-03-21T09:25:35.208Z,35.10
2023-03-21T09:28:05.530Z,32.60
2023-03-21T09:30:34.712Z,33.70
2023-03-21T09:33:08.896Z,36.40
2023-03-21T09:35:37.680Z,32.70
2023-03-21T09:38:07.139Z,33.10
2023-03-21T09:41:00.100Z,32.00
2023-03-21T09:43:39.937Z,30.50
2023-03-21T09:46:12.426Z,34.00
2023-03-21T09:48:56.400Z,39.90
2023-03-21T09:51:37.420Z,33.20
2023-03-21T09:54:08.876Z,31.60
2023-03-21T09:56:37.359Z,27.20
2023-03-21T09:59:07.372Z,28.70
2023-03-21T10:01:42.107Z,28.00
2023-03-21T10:04:15.522Z,27.40
2023-03-21T10:06:45.873Z,30.60
2023-03-21T10:09:32.681Z,29.10
2023-03-21T10:12:14.872Z,31.90
2023-03-21T10:14:44.648Z,30.50
2023-03-21T10:17:22.245Z,29.60
2023-03-21T10:20:12.141Z,25.80
2023-03-21T10:22:44.909Z,24.80
2023-03-21T10:25:34.180Z,21.80
2023-03-21T10:28:03.689Z,25.00
2023-03-21T10:30:53.275Z,28.50
2023-03-21T10:33:42.692Z,24.70
2023-03-21T10:36:31.796Z,26.30
2023-03-21T10:39:07.448Z,26.50
2023-03-21T10:41:36.236Z,28.30
2023-03-21T10:44:17.035Z,26.90
2023-03-21T10:46:56.160Z,28.50
2023-03-21T10:49:26.977Z,27.40
2023-03-21T10:51:58.222Z,31.10
2023-03-21T10:54:29.367Z,28.10
2023-03-21T10:56:58.356Z,26.30
2023-03-21T10:59:28.027Z,25.30
2023-03-21T11:01:56.731Z,31.00
2023-03-21T11:04:28.112Z,31.00
2023-03-21T11:07:01.465Z,27.90
2023-03-21T11:09:53.521Z,25.50
2023-03-21T11:12:41.163Z,26.40
2023-03-21T11:15:33.920Z,25.00
2023-03-21T11:18:18.488Z,25.30
2023-03-21T11:20:51.669Z,24.50
2023-03-21T11:23:21.245Z,27.00
2023-03-21T11:25:51.000Z,28.50
2023-03-21T11:28:23.059Z,26.30
2023-03-21T11:30:57.990Z,26.40
2023-03-21T11:33:53.940Z,25.50
2023-03-21T11:36:22.601Z,29.90
2023-03-21T11:38:53.404Z,27.60
2023-03-21T11:41:32.466Z,28.30
2023-03-21T11:44:29.730Z,29.90
2023-03-21T11:46:58.515Z,25.80
2023-03-21T11:49:33.012Z,27.60
2023-03-21T11:52:16.301Z,29.20
2023-03-21T11:55:03.732Z,27.10
2023-03-21T11:58:20.194Z,26.20
2023-03-21T12:00:57.342Z,25.20
2023-03-21T12:03:47.649Z,27.90
2023-03-21T12:06:36.628Z,27.10
2023-03-21T12:09:32.359Z,25.00
2023-03-21T12:12:09.438Z,30.70
2023-03-21T12:14:48.942Z,30.10
2023-03-21T12:17:39.375Z,29.20
2023-03-21T12:20:21.506Z,30.60
2023-03-21T12:23:06.603Z,30.70
2023-03-21T12:25:40.119Z,26.90
2023-03-21T12:28:31.743Z,24.50
2023-03-21T12:31:16.924Z,24.20
2023-03-21T12:33:48.837Z,25.70
2023-03-21T12:36:41.753Z,26.60
2023-03-21T12:39:12.595Z,28.50
2023-03-21T12:41:44.857Z,27.40
2023-03-21T12:44:17.548Z,27.60
2023-03-21T12:46:58.856Z,26.10
2023-03-21T12:49:33.351Z,25.80
2023-03-21T12:52:11.360Z,25.60
2023-03-21T12:55:00.388Z,25.60
2023-03-21T12:57:47.764Z,26.30
2023-03-21T13:00:26.010Z,27.80
2023-03-21T13:02:58.900Z,25.20
2023-03-21T13:05:39.303Z,29.50
2023-03-21T13:08:24.268Z,25.00
2023-03-21T13:10:52.646Z,25.40
2023-03-21T13:13:39.407Z,26.80
2023-03-21T13:16:29.490Z,25.80
2023-03-21T13:19:04.276Z,27.70
2023-03-21T13:21:59.278Z,31.90
2023-03-21T13:24:38.416Z,26.50
2023-03-21T13:27:15.084Z,27.30
2023-03-21T13:29:47.903Z,27.90
2023-03-21T13:32:28.272Z,27.70
2023-03-21T13:34:58.433Z,29.40
2023-03-21T13:37:34.727Z,26.40
2023-03-21T13:40:14.421Z,30.00
2023-03-21T13:42:45.914Z,29.30
2023-03-21T13:45:24.962Z,27.40
2023-03-21T13:48:00.682Z,29.10
2023-03-21T13:50:52.997Z,30.00
2023-03-21T13:53:22.609Z,27.80
2023-03-21T13:56:09.100Z,26.10
2023-03-21T13:58:51.401Z,22.70
2023-03-21T14:01:31.852Z,24.20
2023-03-21T14:04:20.826Z,26.20
2023-03-21T14:06:57.607Z,32.70
2023-03-21T14:09:29.999Z,29.00
2023-03-21T14:12:03.929Z,27.10
2023-03-21T14:14:42.107Z,29.40
2023-03-21T14:17:26.612Z,33.90
2023-03-21T14:20:12.299Z,28.50
2023-03-21T14:22:47.606Z,31.90
2023-03-21T14:25:17.724Z,30.80
2023-03-21T14:27:49.312Z,26.50
2023-03-21T14:30:29.413Z,28.20
2023-03-21T14:32:59.027Z,27.70
2023-03-21T14:35:31.659Z,23.80
2023-03-21T14:38:07.539Z,24.80
2023-03-21T14:40:38.498Z,21.50
2023-03-21T14:43:06.968Z,20.30
2023-03-21T14:45:37.419Z,20.30
2023-03-21T14:48:13.936Z,22.60
2023-03-21T14:50:45.169Z,19.50
2023-03-21T14:53:21.549Z,17.40
2023-03-21T14:56:02.307Z,19.60
2023-03-21T14:58:34.318Z,17.60
2023-03-21T15:01:04.496Z,18.60
2023-03-21T15:03:32.677Z,19.80
2023-03-21T15:06:05.859Z,17.60
2023-03-21T15:08:34.856Z,20.10
2023-03-21T15:11:07.528Z,17.70
2023-03-21T15:13:42.058Z,20.60
2023-03-21T15:16:11.406Z,20.20
2023-03-21T15:18:39.633Z,20.40
2023-03-21T15:21:13.401Z,21.00
2023-03-21T15:23:46.021Z,20.70
2023-03-21T15:26:22.588Z,19.90
2023-03-21T15:28:51.943Z,23.60
2023-03-21T15:31:21.821Z,25.10
2023-03-21T15:33:51.680Z,22.10
2023-03-21T15:36:22.283Z,24.70
2023-03-21T15:38:51.359Z,25.10
2023-03-21T15:41:19.927Z,27.70
2023-03-21T15:43:49.538Z,26.00
2023-03-21T15:46:48.486Z,27.70
2023-03-21T15:49:16.732Z,25.90
2023-03-21T15:52:07.473Z,26.00
2023-03-21T15:54:42.354Z,28.50
2023-03-21T15:57:30.130Z,24.50
2023-03-21T16:00:12.012Z,28.70
2023-03-21T16:02:41.411Z,31.90
2023-03-21T16:05:27.581Z,28.10
2023-03-21T16:08:03.074Z,28.70
2023-03-21T16:10:37.577Z,27.30
2023-03-21T16:13:06.780Z,25.40
2023-03-21T16:15:34.888Z,28.30
2023-03-21T16:18:04.738Z,28.80
2023-03-21T16:20:41.620Z,28.20
2023-03-21T16:23:11.682Z,28.40
2023-03-21T16:25:44.551Z,31.60
2023-03-21T16:28:14.594Z,31.50
2023-03-21T16:30:43.234Z,34.60
2023-03-21T16:33:13.125Z,39.20
2023-03-21T16:35:42.174Z,34.50
2023-03-21T16:38:11.834Z,35.10
2023-03-21T16:40:43.592Z,39.50
2023-03-21T16:43:12.183Z,37.40
2023-03-21T16:45:42.150Z,38.70
2023-03-21T16:48:16.561Z,39.00
2023-03-21T16:50:48.269Z,36.20
2023-03-21T16:53:17.165Z,39.30
2023-03-21T16:55:46.687Z,36.90
2023-03-21T16:58:21.818Z,39.40
2023-03-21T17:00:50.604Z,33.30
2023-03-21T17:03:19.348Z,37.10
2023-03-21T17:05:49.817Z,34.60
2023-03-21T17:08:19.722Z,35.10
2023-03-21T17:10:48.218Z,36.00
2023-03-21T17:13:17.003Z,32.80
2023-03-21T17:15:45.115Z,33.40
2023-03-21T17:18:16.634Z,34.50
2023-03-21T17:20:46.955Z,33.50
2023-03-21T17:23:15.613Z,30.80
2023-03-21T17:25:44.832Z,27.80
2023-03-21T17:28:13.220Z,29.40
2023-03-21T17:33:46.833Z,29.60
2023-03-21T17:36:17.051Z,26.10
2023-03-21T17:38:48.446Z,27.00
2023-03-21T17:41:17.914Z,29.00
2023-03-21T17:43:46.492Z,27.00
2023-03-21T17:46:16.703Z,24.00
2023-03-21T17:48:45.145Z,22.10
2023-03-21T17:51:16.134Z,20.50
2023-03-21T17:53:48.582Z,22.00
2023-03-21T17:56:23.007Z,20.60
2023-03-21T17:58:51.319Z,17.90
2023-03-21T18:01:19.819Z,21.00
2023-03-21T18:03:48.167Z,21.70
2023-03-21T18:06:18.498Z,20.20
2023-03-21T18:08:47.433Z,22.30
2023-03-21T18:11:16.586Z,21.30
2023-03-21T18:13:45.214Z,21.90
2023-03-21T18:16:16.218Z,20.80
2023-03-21T18:18:46.946Z,22.60
2023-03-21T18:21:18.985Z,24.30
2023-03-21T18:23:48.799Z,23.90
2023-03-21T18:26:19.732Z,26.20
2023-03-21T18:29:36.789Z,25.00
2023-03-21T18:31:45.270Z,25.20
2023-03-21T18:34:15.520Z,27.40
2023-03-21T18:36:44.238Z,29.10
2023-03-21T18:39:13.417Z,28.70
2023-03-21T18:41:42.596Z,28.50
2023-03-21T18:44:15.904Z,29.00
2023-03-21T18:46:51.166Z,27.10
2023-03-21T18:52:10.837Z,29.60
2023-03-21T18:54:41.066Z,30.80
2023-03-21T18:59:59.605Z,28.20
2023-03-21T19:02:27.703Z,26.40
2023-03-21T19:04:57.950Z,26.90
2023-03-21T19:07:26.510Z,26.50
2023-03-21T19:10:16.056Z,30.40
2023-03-21T19:12:43.750Z,27.40
2023-03-21T19:15:13.559Z,28.50
2023-03-21T19:20:32.623Z,30.50
2023-03-21T19:23:01.434Z,29.80
2023-03-21T19:25:29.623Z,29.80
2023-03-21T19:27:58.309Z,32.80
2023-03-21T19:30:27.812Z,33.00
2023-03-21T19:32:57.199Z,29.20
2023-03-21T19:35:25.914Z,32.50
2023-03-21T19:37:54.365Z,25.80
2023-03-21T19:40:22.746Z,24.60
2023-03-21T19:42:51.471Z,31.00
2023-03-21T19:45:21.760Z,29.00
2023-03-21T19:47:50.178Z,32.90
2023-03-21T19:53:07.151Z,36.00
2023-03-21T19:55:36.533Z,36.40
2023-03-21T19:58:07.442Z,37.50
2023-03-21T20:00:38.347Z,37.70
2023-03-21T20:03:08.988Z,38.80
2023-03-21T20:05:39.932Z,38.20
2023-03-21T20:08:10.894Z,32.20
2023-03-21T20:10:41.058Z,35.50
2023-03-21T20:13:10.860Z,32.80
2023-03-21T20:15:46.013Z,38.00
2023-03-21T20:18:24.226Z,36.70
2023-03-21T20:20:53.244Z,38.70
2023-03-21T20:23:21.586Z,39.80
2023-03-21T20:25:50.835Z,42.10
2023-03-21T20:28:25.909Z,42.50
2023-03-21T20:31:02.155Z,38.70
2023-03-21T20:33:31.413Z,39.20
2023-03-21T20:38:52.290Z,37.20
2023-03-21T20:41:20.955Z,35.50
2023-03-21T20:46:38.205Z,38.40
2023-03-21T20:49:09.522Z,38.20
2023-03-21T20:52:45.792Z,36.40
2023-03-21T20:54:27.979Z,37.50
2023-03-21T20:56:57.697Z,35.30
2023-03-21T20:59:28.115Z,33.40
2023-03-21T21:01:59.509Z,36.60
2023-03-21T21:04:52.780Z,33.40
2023-03-21T21:07:21.220Z,35.10
2023-03-21T21:09:54.729Z,36.30
2023-03-21T21:12:27.789Z,36.80
2023-03-21T21:14:56.910Z,38.20
2023-03-21T21:17:57.938Z,39.40
2023-03-21T21:20:20.492Z,39.30
2023-03-21T21:22:59.442Z,38.40
2023-03-21T21:25:32.122Z,36.70
2023-03-21T21:28:02.097Z,38.00
2023-03-21T21:30:38.195Z,37.40
2023-03-21T21:33:07.163Z,37.50
2023-03-21T21:35:36.098Z,34.60
2023-03-21T21:38:04.743Z,40.70
2023-03-21T21:40:33.235Z,37.40
2023-03-21T21:43:03.785Z,40.80
2023-03-21T21:45:32.550Z,36.50
2023-03-21T21:48:01.076Z,36.60
2023-03-21T21:50:30.752Z,39.50
2023-03-21T21:53:03.988Z,35.60
2023-03-21T21:55:34.208Z,44.10
2023-03-21T21:58:03.978Z,42.90
2023-03-21T22:00:32.748Z,39.80
2023-03-21T22:03:02.085Z,37.00
2023-03-21T22:05:31.481Z,42.50
2023-03-21T22:08:04.382Z,41.10
2023-03-21T22:10:34.256Z,37.10
2023-03-21T22:13:02.529Z,40.90
2023-03-21T22:15:36.821Z,38.20
2023-03-21T22:18:05.331Z,38.10
2023-03-21T22:20:34.142Z,39.60
2023-03-21T22:23:02.500Z,41.80
2023-03-21T22:25:33.334Z,35.80
2023-03-21T22:28:01.576Z,39.70
2023-03-21T22:30:31.117Z,37.50
2023-03-21T22:33:09.209Z,36.40
2023-03-21T22:35:39.618Z,38.10
2023-03-21T22:38:09.142Z,36.00
2023-03-21T22:40:38.103Z,38.00
2023-03-21T22:43:09.098Z,38.80
2023-03-21T22:45:37.721Z,39.10
2023-03-21T22:48:06.688Z,37.10
2023-03-21T22:50:35.574Z,38.60
2023-03-21T22:53:04.052Z,38.60
2023-03-21T22:55:32.584Z,37.00
2023-03-21T22:58:01.319Z,35.40
2023-03-21T23:00:29.800Z,36.60
2023-03-21T23:02:59.843Z,33.30
2023-03-21T23:05:28.810Z,35.90
2023-03-21T23:07:58.624Z,37.70
2023-03-21T23:10:27.821Z,40.80
2023-03-21T23:12:56.232Z,39.70
2023-03-21T23:15:24.598Z,36.40
2023-03-21T23:17:52.943Z,38.10
2023-03-21T23:20:21.236Z,36.50
2023-03-21T23:22:51.852Z,33.60
2023-03-21T23:25:21.173Z,33.80
2023-03-21T23:27:49.453Z,37.50
2023-03-21T23:30:18.024Z,35.90
2023-03-21T23:32:46.406Z,35.50
2023-03-21T23:35:16.834Z,35.50
2023-03-21T23:37:52.752Z,34.10
2023-03-21T23:40:21.342Z,36.10
2023-03-21T23:42:49.757Z,33.00
2023-03-21T23:45:18.105Z,33.50
2023-03-21T23:47:47.826Z,33.50
2023-03-21T23:50:16.639Z,31.80
2023-03-21T23:52:49.904Z,39.00
2023-03-21T23:55:18.443Z,37.20
2023-03-21T23:57:46.917Z,36.80
